Time;durP1;ratioP1;P1;durP2;ratioP2;P2;SDS_P1;SDS_P2;PMS_P1;PMS_P2;Temp;Humidity;BMP_temperature;BMP_pressure;BME280_temperature;BME280_humidity;BME280_pressure;Samples;Min_cycle;Max_cycle;Signal;HPM_P1;HPM_P2
2023/07/17 00:01:55;;;;;;;5.43;4.53;;;21.20;65.60;;;;;;5016339;28;20737;-83
2023/07/17 00:04:23;;;;;;;5.70;4.40;;;21.30;65.60;;;;;;4995184;28;20422;-83
2023/07/17 00:06:56;;;;;;;4.63;4.23;;;21.20;66.60;;;;;;5004641;28;20514;-84
2023/07/17 00:09:23;;;;;;;4.53;4.13;;;21.30;66.60;;;;;;5007294;28;20454;-82
2023/07/17 00:11:50;;;;;;;4.30;4.00;;;21.20;66.20;;;;;;5007781;28;20489;-82
2023/07/17 00:14:18;;;;;;;4.70;3.93;;;21.20;66.70;;;;;;5016246;28;20410;-83
2023/07/17 00:16:47;;;;;;;5.13;4.60;;;21.30;67.00;;;;;;5006799;28;20465;-83
2023/07/17 00:19:15;;;;;;;4.00;3.70;;;21.10;67.50;;;;;;5002267;28;20410;-82
2023/07/17 00:21:43;;;;;;;8.00;4.00;;;21.20;67.10;;;;;;5011565;28;20409;-79
2023/07/17 00:24:11;;;;;;;4.50;4.10;;;21.20;66.50;;;;;;5004795;28;20446;-81
2023/07/17 00:26:38;;;;;;;5.30;4.80;;;21.30;65.70;;;;;;5011383;28;20525;-81
2023/07/17 00:29:25;;;;;;;4.27;3.90;;;21.30;65.50;;;;;;5004514;28;20430;-83
2023/07/17 00:31:52;;;;;;;4.50;3.87;;;21.20;65.70;;;;;;5007374;28;20440;-83
2023/07/17 00:34:19;;;;;;;4.63;4.23;;;21.20;66.20;;;;;;5003086;28;20853;-82
2023/07/17 00:36:51;;;;;;;4.70;4.30;;;21.20;66.70;;;;;;5007029;28;20513;-82
2023/07/17 00:39:19;;;;;;;4.10;3.80;;;21.10;67.20;;;;;;4985006;28;20436;-82
2023/07/17 00:41:51;;;;;;;4.33;3.93;;;21.00;67.30;;;;;;5014938;28;20983;-82
2023/07/17 00:44:18;;;;;;;6.83;3.63;;;21.00;67.70;;;;;;5002917;28;20435;-83
2023/07/17 00:46:48;;;;;;;3.80;3.50;;;20.90;68.10;;;;;;4999787;28;20451;-85
2023/07/17 00:49:17;;;;;;;4.63;4.10;;;20.80;68.60;;;;;;5010916;28;20417;-83
2023/07/17 00:51:44;;;;;;;5.30;4.00;;;20.70;68.40;;;;;;5004728;28;20418;-82
2023/07/17 00:54:15;;;;;;;5.07;4.67;;;20.70;68.60;;;;;;5001014;28;20467;-84
2023/07/17 00:56:43;;;;;;;5.00;4.00;;;20.80;68.60;;;;;;5002123;28;20653;-82
2023/07/17 00:59:10;;;;;;;4.37;4.07;;;20.80;68.70;;;;;;5002970;28;20426;-82
2023/07/17 01:01:37;;;;;;;4.83;4.20;;;20.70;68.90;;;;;;4999888;28;20480;-83
2023/07/17 01:04:05;;;;;;;4.70;4.30;;;20.70;69.00;;;;;;5000630;28;20479;-83
2023/07/17 01:06:34;;;;;;;4.57;4.00;;;20.60;69.30;;;;;;5015192;28;20787;-82
2023/07/17 01:09:01;;;;;;;4.43;4.07;;;20.80;69.60;;;;;;5000573;28;20423;-82
2023/07/17 01:11:29;;;;;;;5.03;4.17;;;20.80;69.20;;;;;;4975554;28;20451;-82
2023/07/17 01:13:55;;;;;;;4.10;3.70;;;20.90;69.00;;;;;;5008272;28;20460;-84
2023/07/17 01:16:24;;;;;;;4.13;3.83;;;21.00;68.70;;;;;;5000555;28;20570;-84
2023/07/17 01:18:52;;;;;;;4.33;4.00;;;21.00;69.30;;;;;;5004754;28;20443;-83
2023/07/17 01:21:26;;;;;;;4.20;3.70;;;21.00;69.40;;;;;;5003509;28;20494;-84
2023/07/17 01:23:56;;;;;;;7.20;4.17;;;20.90;70.50;;;;;;4994313;28;20413;-82
2023/07/17 01:26:26;;;;;;;4.73;4.33;;;21.00;70.40;;;;;;4979111;28;20428;-83
2023/07/17 01:28:53;;;;;;;6.30;4.60;;;20.90;70.00;;;;;;5003092;28;20419;-83
2023/07/17 01:31:22;;;;;;;8.60;4.70;;;20.80;72.70;;;;;;5008642;28;20438;-83
2023/07/17 01:33:51;;;;;;;4.13;3.60;;;20.90;71.00;;;;;;5004369;28;20439;-84
2023/07/17 01:36:18;;;;;;;4.27;3.87;;;20.80;71.30;;;;;;5004195;28;20536;-84
2023/07/17 01:38:45;;;;;;;4.43;4.03;;;20.90;71.20;;;;;;5010634;28;20409;-83
2023/07/17 01:41:13;;;;;;;5.07;3.90;;;20.80;70.80;;;;;;4992848;28;20486;-80
2023/07/17 01:43:41;;;;;;;7.13;4.57;;;20.90;70.70;;;;;;5014863;28;20419;-81
2023/07/17 01:46:09;;;;;;;4.40;4.00;;;20.90;70.50;;;;;;5007207;28;20446;-81
2023/07/17 01:48:37;;;;;;;4.20;3.90;;;21.00;70.10;;;;;;5009628;28;20700;-81
2023/07/17 01:51:04;;;;;;;4.50;3.83;;;21.00;70.00;;;;;;5001313;28;20511;-82
2023/07/17 01:53:32;;;;;;;5.60;3.80;;;20.90;70.10;;;;;;5010765;28;20421;-82
2023/07/17 01:56:00;;;;;;;4.47;4.17;;;20.90;70.70;;;;;;5014449;28;20483;-82
2023/07/17 01:58:29;;;;;;;4.73;4.30;;;20.90;70.20;;;;;;4985804;28;20426;-81
2023/07/17 02:00:57;;;;;;;5.13;3.73;;;20.90;69.70;;;;;;4992888;28;21015;-79
2023/07/17 02:03:26;;;;;;;4.30;4.00;;;21.00;69.20;;;;;;4999085;28;20426;-81
2023/07/17 02:05:53;;;;;;;4.20;3.80;;;21.10;69.50;;;;;;5006459;28;20518;-82
2023/07/17 02:08:20;;;;;;;4.10;3.70;;;21.00;69.80;;;;;;5007018;28;20451;-83
2023/07/17 02:10:50;;;;;;;4.27;3.93;;;21.00;70.50;;;;;;5001486;28;20452;-84
2023/07/17 02:13:17;;;;;;;4.17;3.87;;;21.10;71.30;;;;;;5006052;28;20442;-81
2023/07/17 02:15:45;;;;;;;4.70;4.30;;;21.00;72.00;;;;;;5007380;28;20744;-82
2023/07/17 02:18:12;;;;;;;5.50;4.63;;;20.90;72.50;;;;;;4995010;28;20447;-82
2023/07/17 02:20:39;;;;;;;4.53;4.13;;;20.80;73.20;;;;;;5006600;28;20449;-82
2023/07/17 02:23:06;;;;;;;4.60;4.20;;;21.00;73.70;;;;;;4999502;28;20417;-83
2023/07/17 02:25:37;;;;;;;4.10;3.70;;;20.80;73.70;;;;;;4999370;28;20663;-80
2023/07/17 02:28:07;;;;;;;5.00;3.40;;;20.90;73.10;;;;;;5002473;28;20498;-79
2023/07/17 02:30:34;;;;;;;4.53;4.13;;;20.90;73.70;;;;;;4998951;28;20584;-81
2023/07/17 02:33:01;;;;;;;4.70;3.77;;;20.90;73.80;;;;;;5001005;28;20553;-79
2023/07/17 02:35:37;;;;;;;5.63;4.30;;;20.80;74.00;;;;;;4975427;28;20459;-82
2023/07/17 02:38:04;;;;;;;9.00;4.63;;;20.80;74.20;;;;;;5007576;28;20504;-82
2023/07/17 02:40:32;;;;;;;4.73;4.33;;;20.80;74.40;;;;;;4996319;28;20838;-82
2023/07/17 02:43:00;;;;;;;4.43;4.03;;;20.80;74.90;;;;;;5011483;28;20453;-81
2023/07/17 02:45:28;;;;;;;4.70;4.30;;;20.70;75.30;;;;;;5010180;28;20517;-81
2023/07/17 02:47:55;;;;;;;4.83;4.33;;;20.70;75.30;;;;;;4990437;28;20483;-83
2023/07/17 02:50:23;;;;;;;4.07;3.77;;;20.70;75.70;;;;;;5005446;28;20410;-83
2023/07/17 02:52:50;;;;;;;7.37;4.63;;;20.70;75.50;;;;;;4987004;28;20789;-82
2023/07/17 02:55:18;;;;;;;4.20;3.80;;;20.90;75.20;;;;;;5008078;28;20447;-80
2023/07/17 02:57:45;;;;;;;5.80;4.27;;;20.80;74.50;;;;;;5003421;28;20672;-81
2023/07/17 03:00:14;;;;;;;5.93;4.33;;;20.90;74.30;;;;;;5006186;28;20475;-82
2023/07/17 03:02:44;;;;;;;4.90;4.50;;;20.90;74.70;;;;;;5004898;28;20437;-82
2023/07/17 03:05:12;;;;;;;4.87;4.00;;;21.10;75.90;;;;;;5012319;28;20505;-79
2023/07/17 03:07:41;;;;;;;6.30;4.57;;;20.90;76.50;;;;;;5006171;28;20452;-83
2023/07/17 03:10:09;;;;;;;6.60;4.63;;;20.80;76.10;;;;;;5006278;28;20428;-79
2023/07/17 03:12:36;;;;;;;4.77;4.13;;;20.80;76.70;;;;;;5009985;28;20455;-77
2023/07/17 03:15:04;;;;;;;5.77;4.20;;;20.80;76.50;;;;;;5003009;28;20770;-78
2023/07/17 03:17:32;;;;;;;5.77;4.80;;;20.70;77.10;;;;;;4999640;28;20481;-78
2023/07/17 03:20:00;;;;;;;5.60;5.10;;;20.80;76.50;;;;;;4998752;28;20511;-77
2023/07/17 03:22:26;;;;;;;7.30;5.17;;;20.80;76.00;;;;;;4998621;28;20527;-78
2023/07/17 03:24:55;;;;;;;6.03;4.20;;;20.80;76.00;;;;;;4998662;28;20506;-79
2023/07/17 03:27:23;;;;;;;7.70;5.60;;;20.80;75.90;;;;;;5008546;28;20511;-79
2023/07/17 03:29:50;;;;;;;5.10;4.70;;;20.90;75.70;;;;;;5005023;28;20478;-79
2023/07/17 03:32:17;;;;;;;7.07;4.53;;;20.80;75.60;;;;;;5000566;28;20448;-80
2023/07/17 03:34:44;;;;;;;11.27;5.27;;;20.60;76.40;;;;;;5002850;28;20442;-79
2023/07/17 03:37:11;;;;;;;6.77;5.57;;;20.50;76.90;;;;;;5001923;28;20457;-79
2023/07/17 03:39:38;;;;;;;5.40;5.00;;;20.40;77.40;;;;;;5009303;28;20442;-77
2023/07/17 03:42:10;;;;;;;6.13;4.70;;;20.40;77.90;;;;;;5009426;28;20467;-81
2023/07/17 03:44:38;;;;;;;6.30;5.70;;;20.40;78.30;;;;;;5001656;28;20413;-79
2023/07/17 03:47:08;;;;;;;5.50;4.93;;;20.30;78.90;;;;;;5010217;28;20549;-83
2023/07/17 03:49:36;;;;;;;9.60;8.43;;;20.40;79.70;;;;;;4985783;28;20447;-81
2023/07/17 03:52:03;;;;;;;9.40;6.27;;;20.20;80.30;;;;;;5010217;28;20426;-82
2023/07/17 03:54:32;;;;;;;6.73;6.03;;;20.20;81.30;;;;;;5004869;28;20608;-81
2023/07/17 03:56:59;;;;;;;5.53;5.03;;;20.20;80.70;;;;;;5004852;28;20497;-80
2023/07/17 03:59:26;;;;;;;11.87;5.90;;;20.30;80.90;;;;;;5002079;28;20418;-83
2023/07/17 04:01:55;;;;;;;6.43;5.77;;;20.10;80.70;;;;;;5003030;28;20438;-82
2023/07/17 04:04:25;;;;;;;6.30;5.70;;;20.10;80.90;;;;;;5001871;28;20430;-83
2023/07/17 04:06:56;;;;;;;6.33;5.70;;;20.10;81.00;;;;;;5002807;28;20502;-83
2023/07/17 04:09:23;;;;;;;8.00;5.20;;;20.10;81.10;;;;;;5012628;28;20406;-87
2023/07/17 04:11:50;;;;;;;9.40;6.00;;;20.10;81.30;;;;;;5017735;28;20477;-81
2023/07/17 04:14:17;;;;;;;9.37;6.37;;;20.20;80.90;;;;;;5018927;28;20479;-81
2023/07/17 04:16:46;;;;;;;5.47;4.83;;;20.10;80.60;;;;;;4978668;28;20505;-83
2023/07/17 04:19:13;;;;;;;9.67;6.40;;;20.30;81.00;;;;;;5001307;28;20426;-81
2023/07/17 04:21:40;;;;;;;5.63;5.00;;;20.30;80.80;;;;;;5003476;28;20497;-82
2023/07/17 04:24:08;;;;;;;21.00;10.43;;;20.40;80.50;;;;;;4997497;28;20969;-82
2023/07/17 04:26:38;;;;;;;9.53;5.90;;;20.70;79.70;;;;;;5006567;28;20453;-82
2023/07/17 04:29:06;;;;;;;6.73;6.13;;;20.80;78.50;;;;;;5007549;28;20422;-81
2023/07/17 04:31:33;;;;;;;8.60;6.50;;;20.90;77.90;;;;;;4999982;28;20452;-81
2023/07/17 04:34:00;;;;;;;8.80;5.60;;;21.00;78.30;;;;;;4985829;28;20455;-82
2023/07/17 04:36:29;;;;;;;7.13;5.93;;;21.20;77.70;;;;;;5012712;28;20466;-82
2023/07/17 04:38:56;;;;;;;7.30;5.97;;;21.40;77.70;;;;;;4987020;28;20510;-82
2023/07/17 04:41:23;;;;;;;12.70;6.90;;;21.60;75.70;;;;;;5015603;28;20500;-79
2023/07/17 04:43:51;;;;;;;7.27;6.57;;;21.80;75.30;;;;;;5006716;28;20449;-80
2023/07/17 04:46:18;;;;;;;6.70;6.00;;;21.90;74.30;;;;;;5010352;28;20440;-78
2023/07/17 04:48:45;;;;;;;6.30;5.40;;;22.00;74.60;;;;;;5006988;28;20415;-79
2023/07/17 04:51:13;;;;;;;6.13;5.50;;;22.20;72.50;;;;;;5002538;28;20505;-81
2023/07/17 04:53:41;;;;;;;11.97;5.70;;;22.40;71.00;;;;;;5001962;28;20433;-79
2023/07/17 04:56:09;;;;;;;13.00;5.97;;;22.50;71.30;;;;;;5000618;28;20632;-81
2023/07/17 04:58:40;;;;;;;7.40;6.00;;;22.40;71.70;;;;;;5000748;28;20431;-80
2023/07/17 05:01:10;;;;;;;9.13;5.70;;;22.60;70.90;;;;;;4998784;28;20438;-80
2023/07/17 05:03:37;;;;;;;10.47;6.00;;;22.50;70.30;;;;;;5001445;28;20445;-79
2023/07/17 05:06:04;;;;;;;15.33;6.00;;;22.70;70.80;;;;;;4997209;28;20478;-80
2023/07/17 05:08:33;;;;;;;6.37;4.90;;;22.80;71.10;;;;;;4999153;28;20410;-82
2023/07/17 05:11:02;;;;;;;7.57;4.63;;;23.00;70.50;;;;;;4971392;28;20468;-81
2023/07/17 05:13:29;;;;;;;6.43;5.77;;;23.20;71.30;;;;;;5003692;28;20451;-79
2023/07/17 05:15:56;;;;;;;6.03;5.40;;;23.00;71.80;;;;;;5011644;28;20510;-80
2023/07/17 05:18:26;;;;;;;6.63;6.03;;;23.10;71.70;;;;;;5003764;28;20817;-78
2023/07/17 05:20:53;;;;;;;6.80;5.10;;;23.20;70.50;;;;;;5003740;28;20407;-81
2023/07/17 05:23:20;;;;;;;7.33;5.80;;;23.50;70.50;;;;;;5008710;28;20533;-80
2023/07/17 05:25:58;;;;;;;9.33;5.60;;;23.50;70.00;;;;;;5000290;28;20487;-79
2023/07/17 05:28:28;;;;;;;6.77;5.30;;;23.60;70.00;;;;;;5000593;28;20506;-81
2023/07/17 05:30:57;;;;;;;6.70;5.37;;;23.60;69.90;;;;;;4992718;28;20739;-81
2023/07/17 05:33:24;;;;;;;5.77;5.17;;;23.80;69.10;;;;;;4982198;28;20468;-81
2023/07/17 05:35:51;;;;;;;5.90;5.40;;;23.60;69.00;;;;;;5009276;28;20675;-79
2023/07/17 05:38:20;;;;;;;6.50;5.53;;;23.60;69.80;;;;;;4996446;28;20480;-80
2023/07/17 05:40:47;;;;;;;7.87;6.97;;;23.60;70.50;;;;;;4996632;28;20758;-79
2023/07/17 05:43:14;;;;;;;8.80;4.73;;;23.70;69.70;;;;;;4983553;28;20461;-80
2023/07/17 05:45:42;;;;;;;14.67;5.77;;;23.90;69.70;;;;;;4988720;28;20422;-81
2023/07/17 05:48:09;;;;;;;7.03;5.57;;;24.10;68.90;;;;;;5003608;28;20624;-79
2023/07/17 05:50:43;;;;;;;8.83;5.23;;;24.20;67.80;;;;;;4991039;28;20414;-80
2023/07/17 05:53:13;;;;;;;8.80;7.73;;;24.20;67.60;;;;;;5005081;28;20519;-79
2023/07/17 05:55:41;;;;;;;9.83;6.63;;;24.40;68.00;;;;;;5008688;28;20415;-79
2023/07/17 05:58:08;;;;;;;10.20;6.40;;;24.30;67.50;;;;;;5003326;28;20853;-81
2023/07/17 06:00:35;;;;;;;10.53;5.73;;;24.40;67.30;;;;;;4996424;28;20425;-81
2023/07/17 06:03:02;;;;;;;11.87;6.90;;;24.60;66.50;;;;;;4988908;28;20420;-79
2023/07/17 06:05:29;;;;;;;9.43;5.23;;;24.70;66.40;;;;;;5004570;28;20691;-80
2023/07/17 06:07:56;;;;;;;8.70;6.10;;;24.80;66.50;;;;;;5000158;28;20432;-81
2023/07/17 06:10:23;;;;;;;10.63;5.90;;;25.00;65.50;;;;;;5004931;28;20424;-80
2023/07/17 06:12:52;;;;;;;6.07;4.83;;;25.10;65.20;;;;;;5014709;28;20441;-81
2023/07/17 06:15:19;;;;;;;8.70;5.60;;;25.20;64.70;;;;;;5021286;28;20432;-81
2023/07/17 06:17:46;;;;;;;7.17;4.90;;;25.40;63.70;;;;;;5020065;28;20477;-81
2023/07/17 06:20:13;;;;;;;7.70;5.27;;;25.40;64.10;;;;;;4998414;28;20473;-81
2023/07/17 06:22:40;;;;;;;8.00;4.43;;;25.30;63.00;;;;;;4991001;28;20518;-80
2023/07/17 06:25:07;;;;;;;7.10;4.57;;;25.70;63.60;;;;;;5011426;28;20442;-80
2023/07/17 06:27:34;;;;;;;5.20;3.87;;;26.00;60.50;;;;;;5010219;28;20450;-79
2023/07/17 06:30:02;;;;;;;5.80;4.80;;;26.30;58.90;;;;;;5005596;28;20441;-77
2023/07/17 06:32:29;;;;;;;9.53;5.17;;;26.90;56.90;;;;;;5019447;28;20472;-77
2023/07/17 06:34:57;;;;;;;7.70;4.90;;;27.10;56.20;;;;;;5016688;28;20746;-78
2023/07/17 06:37:23;;;;;;;5.40;4.90;;;27.00;56.90;;;;;;5007466;28;20517;-78
2023/07/17 06:39:51;;;;;;;5.00;4.50;;;26.70;56.80;;;;;;5001870;28;20934;-77
2023/07/17 06:42:17;;;;;;;4.90;4.50;;;26.80;57.00;;;;;;5006493;28;20418;-79
2023/07/17 06:44:45;;;;;;;7.27;5.00;;;27.20;55.40;;;;;;5021249;28;20514;-78
2023/07/17 06:47:11;;;;;;;5.00;4.40;;;26.90;55.00;;;;;;5016659;28;20522;-79
2023/07/17 06:49:55;;;;;;;5.30;4.80;;;27.40;54.20;;;;;;5011296;28;20410;-78
2023/07/17 06:52:23;;;;;;;8.57;4.70;;;28.40;53.10;;;;;;5011202;28;20830;-79
2023/07/17 06:54:49;;;;;;;6.53;4.60;;;29.00;50.80;;;;;;5005298;28;20894;-76
2023/07/17 06:57:30;;;;;;;7.77;4.43;;;29.20;50.30;;;;;;5004247;28;20676;-79
2023/07/17 06:59:57;;;;;;;9.20;5.07;;;29.30;49.20;;;;;;5008969;28;20458;-78
2023/07/17 07:02:24;;;;;;;10.30;4.73;;;29.90;45.10;;;;;;5018359;28;20454;-79
2023/07/17 07:04:52;;;;;;;8.33;4.60;;;30.40;43.80;;;;;;5006397;28;20612;-80
2023/07/17 07:07:18;;;;;;;5.37;4.87;;;30.60;41.90;;;;;;4995306;28;20479;-76
2023/07/17 07:09:46;;;;;;;6.40;4.93;;;30.30;43.60;;;;;;4999771;28;20448;-81
2023/07/17 07:12:14;;;;;;;6.50;5.87;;;30.70;42.90;;;;;;4987843;28;20490;-77
2023/07/17 07:14:41;;;;;;;5.80;4.43;;;30.20;44.90;;;;;;4987499;28;20432;-77
2023/07/17 07:17:08;;;;;;;6.00;4.93;;;30.10;45.50;;;;;;5015812;28;20490;-78
2023/07/17 07:19:35;;;;;;;8.47;5.23;;;30.10;45.20;;;;;;5008279;28;20431;-77
2023/07/17 07:22:03;;;;;;;8.40;6.43;;;30.00;46.00;;;;;;5003042;28;20568;-81
2023/07/17 07:24:30;;;;;;;5.57;5.07;;;29.50;47.50;;;;;;5003579;28;20447;-77
2023/07/17 07:26:57;;;;;;;6.03;4.67;;;29.50;47.30;;;;;;5007620;28;20508;-78
2023/07/17 07:29:25;;;;;;;5.07;4.67;;;28.70;50.50;;;;;;5010269;28;20739;-79
2023/07/17 07:31:52;;;;;;;8.57;5.43;;;28.50;51.00;;;;;;5004136;28;20798;-78
2023/07/17 07:34:19;;;;;;;5.90;4.23;;;29.00;51.30;;;;;;5005217;28;20519;-77
2023/07/17 07:36:46;;;;;;;5.93;5.23;;;28.90;52.10;;;;;;5011559;28;20503;-79
2023/07/17 07:39:13;;;;;;;6.40;5.47;;;29.30;51.90;;;;;;5016910;28;20603;-79
2023/07/17 07:41:40;;;;;;;9.60;5.20;;;29.10;50.60;;;;;;5008117;28;20439;-81
2023/07/17 07:44:07;;;;;;;10.30;4.93;;;28.60;52.20;;;;;;5003818;28;20571;-79
2023/07/17 07:46:38;;;;;;;5.93;5.40;;;28.90;51.70;;;;;;4981463;28;20442;-79
2023/07/17 07:49:05;;;;;;;6.40;4.50;;;29.10;51.20;;;;;;4986860;28;20414;-78
2023/07/17 07:51:33;;;;;;;5.17;4.33;;;29.10;50.50;;;;;;5012516;28;20750;-79
2023/07/17 07:54:00;;;;;;;8.00;5.20;;;28.90;51.00;;;;;;5007097;28;20471;-78
2023/07/17 07:56:27;;;;;;;6.73;5.60;;;28.90;51.40;;;;;;5019645;28;20610;-80
2023/07/17 07:58:54;;;;;;;7.77;4.70;;;28.90;51.40;;;;;;5014014;28;20486;-79
2023/07/17 08:01:21;;;;;;;9.40;5.10;;;28.80;51.30;;;;;;5003897;28;20426;-80
2023/07/17 08:03:48;;;;;;;7.60;5.17;;;28.80;52.50;;;;;;5004184;28;20460;-79
2023/07/17 08:06:16;;;;;;;6.77;4.70;;;28.50;51.80;;;;;;5000392;28;20444;-78
2023/07/17 08:08:43;;;;;;;7.97;4.73;;;28.70;52.60;;;;;;5001255;28;20494;-81
2023/07/17 08:11:11;;;;;;;5.70;5.10;;;28.90;52.60;;;;;;5004067;28;20444;-79
2023/07/17 08:13:38;;;;;;;8.93;7.70;;;29.10;52.20;;;;;;5012762;28;20425;-85
2023/07/17 08:16:04;;;;;;;4.50;4.10;;;28.80;53.50;;;;;;5009224;28;20458;-79
2023/07/17 08:18:31;;;;;;;10.63;5.33;;;29.00;53.40;;;;;;5014280;28;20479;-83
2023/07/17 08:21:00;;;;;;;7.30;4.87;;;29.30;52.20;;;;;;4999043;28;20410;-80
2023/07/17 08:23:27;;;;;;;6.47;5.40;;;28.70;53.00;;;;;;5010380;28;20447;-81
2023/07/17 08:25:54;;;;;;;9.10;4.83;;;28.80;54.10;;;;;;5008516;28;20407;-81
2023/07/17 08:28:22;;;;;;;5.60;4.77;;;28.80;54.00;;;;;;5004077;28;20515;-80
2023/07/17 08:30:52;;;;;;;5.83;5.20;;;29.30;53.00;;;;;;5001732;28;20765;-78
2023/07/17 08:33:20;;;;;;;9.17;5.57;;;28.90;53.60;;;;;;4994506;28;20601;-79
2023/07/17 08:35:48;;;;;;;7.30;4.77;;;29.20;54.00;;;;;;4984404;28;20561;-79
2023/07/17 08:38:15;;;;;;;5.80;5.20;;;29.50;53.30;;;;;;5003019;28;20505;-79
2023/07/17 08:40:52;;;;;;;7.40;4.87;;;29.10;53.30;;;;;;5003443;28;20659;-80
2023/07/17 08:43:22;;;;;;;5.70;4.70;;;29.10;53.80;;;;;;5002938;28;20514;-80
2023/07/17 08:45:51;;;;;;;4.60;4.30;;;28.50;55.50;;;;;;5003458;28;20442;-80
2023/07/17 08:48:19;;;;;;;8.73;5.40;;;28.80;55.20;;;;;;5002668;28;20481;-76
2023/07/17 08:50:47;;;;;;;7.47;5.77;;;29.00;55.40;;;;;;5002047;28;20667;-77
2023/07/17 08:53:16;;;;;;;6.80;5.70;;;29.20;54.70;;;;;;5002987;28;20687;-80
2023/07/17 08:55:43;;;;;;;6.27;5.67;;;29.50;54.10;;;;;;5002123;28;20616;-78
2023/07/17 08:58:11;;;;;;;6.30;5.50;;;29.40;54.00;;;;;;4985645;28;20502;-77
2023/07/17 09:00:39;;;;;;;5.27;4.77;;;29.40;55.30;;;;;;5002748;28;20551;-78
2023/07/17 09:03:06;;;;;;;5.17;4.77;;;29.40;54.90;;;;;;5003053;28;20440;-77
2023/07/17 09:05:35;;;;;;;7.00;4.57;;;29.60;54.40;;;;;;5001453;28;20439;-77
2023/07/17 09:08:02;;;;;;;8.27;5.20;;;29.70;53.60;;;;;;5003200;28;20421;-78
2023/07/17 09:10:29;;;;;;;5.27;4.30;;;29.90;52.40;;;;;;5002813;28;20797;-77
2023/07/17 09:12:58;;;;;;;5.40;4.30;;;29.80;53.20;;;;;;5002697;28;20657;-78
2023/07/17 09:15:27;;;;;;;5.40;5.00;;;30.00;51.70;;;;;;4985484;28;20432;-78
2023/07/17 09:17:55;;;;;;;5.53;5.03;;;30.10;51.90;;;;;;5002284;28;20511;-78
2023/07/17 09:20:22;;;;;;;5.30;4.80;;;30.20;50.10;;;;;;5002346;28;20448;-78
2023/07/17 09:22:49;;;;;;;6.53;5.30;;;30.10;50.10;;;;;;4985077;28;20764;-78
2023/07/17 09:25:16;;;;;;;6.43;5.60;;;30.30;49.70;;;;;;5002298;28;20628;-79
2023/07/17 09:27:47;;;;;;;4.97;4.43;;;30.50;48.50;;;;;;5006162;28;20503;-79
2023/07/17 09:30:20;;;;;;;6.40;4.87;;;30.70;47.60;;;;;;5004541;28;20387;-79
2023/07/17 09:32:48;;;;;;;7.27;5.30;;;30.40;46.90;;;;;;4985650;28;20462;-78
2023/07/17 09:35:22;;;;;;;12.13;4.60;;;30.40;48.00;;;;;;5002442;28;20489;-77
2023/07/17 09:37:50;;;;;;;6.10;5.40;;;30.90;47.10;;;;;;5003082;28;20644;-80
2023/07/17 09:40:18;;;;;;;5.83;4.57;;;31.40;44.90;;;;;;5001763;28;20522;-77
2023/07/17 09:42:52;;;;;;;4.47;4.07;;;31.10;43.90;;;;;;5002439;28;20499;-79
2023/07/17 09:45:19;;;;;;;7.13;4.90;;;31.00;43.30;;;;;;5001897;28;20454;-78
2023/07/17 09:47:49;;;;;;;5.13;4.50;;;30.70;44.00;;;;;;5002373;28;20440;-79
2023/07/17 09:50:19;;;;;;;4.80;4.40;;;30.20;45.20;;;;;;5002376;28;20439;-79
2023/07/17 09:52:49;;;;;;;5.23;4.60;;;30.00;46.00;;;;;;5002267;28;20435;-78
2023/07/17 09:55:24;;;;;;;6.13;5.53;;;30.00;47.10;;;;;;4984918;28;20503;-78
2023/07/17 09:57:57;;;;;;;8.30;4.70;;;30.00;46.40;;;;;;5002393;28;20542;-77
2023/07/17 10:00:27;;;;;;;6.50;4.70;;;30.30;45.80;;;;;;5002262;28;20490;-77
2023/07/17 10:03:04;;;;;;;4.93;4.20;;;30.60;45.20;;;;;;5002254;28;20738;-79
2023/07/17 10:05:33;;;;;;;5.97;5.47;;;30.60;45.20;;;;;;5002050;28;20610;-78
2023/07/17 10:08:05;;;;;;;7.53;4.17;;;30.10;45.30;;;;;;5002230;28;20439;-77
2023/07/17 10:10:32;;;;;;;5.97;5.37;;;30.30;45.90;;;;;;5001975;28;20446;-79
2023/07/17 10:12:59;;;;;;;4.83;4.43;;;30.50;43.70;;;;;;5001008;28;20506;-80
2023/07/17 10:15:28;;;;;;;5.90;5.40;;;30.50;43.70;;;;;;4984635;28;20768;-81
2023/07/17 10:17:57;;;;;;;5.53;5.03;;;30.20;43.30;;;;;;5002572;28;20471;-79
2023/07/17 10:20:26;;;;;;;8.27;4.53;;;30.30;45.20;;;;;;5002246;28;20442;-77
2023/07/17 10:22:53;;;;;;;7.47;4.70;;;30.70;44.20;;;;;;5002515;28;20502;-78
2023/07/17 10:25:20;;;;;;;6.40;5.20;;;30.80;43.60;;;;;;5001653;28;20435;-79
2023/07/17 10:28:00;;;;;;;5.33;4.77;;;31.00;43.30;;;;;;5002571;28;20463;-79
2023/07/17 10:30:35;;;;;;;5.63;5.17;;;31.00;42.80;;;;;;5006381;28;20427;-79
2023/07/17 10:33:19;;;;;;;11.60;5.57;;;31.00;43.00;;;;;;4998925;28;20509;-78
2023/07/17 10:35:57;;;;;;;6.03;5.43;;;30.90;43.30;;;;;;5009086;28;20447;-78
2023/07/17 10:38:25;;;;;;;5.77;5.13;;;31.10;42.90;;;;;;4984703;28;20467;-78
2023/07/17 10:41:02;;;;;;;5.50;4.93;;;31.20;41.80;;;;;;5001633;28;20639;-78
2023/07/17 10:43:29;;;;;;;5.97;5.47;;;31.30;42.00;;;;;;5001524;28;20431;-81
2023/07/17 10:45:59;;;;;;;6.80;5.10;;;31.70;42.10;;;;;;5001690;28;20486;-79
2023/07/17 10:48:30;;;;;;;5.60;4.60;;;31.90;41.60;;;;;;5001775;28;20440;-78
2023/07/17 10:50:57;;;;;;;5.73;5.20;;;32.10;40.70;;;;;;5002747;28;20514;-80
2023/07/17 10:53:24;;;;;;;5.70;5.23;;;32.20;40.40;;;;;;5002006;28;20436;-78
2023/07/17 10:55:52;;;;;;;5.90;5.40;;;32.10;40.40;;;;;;5001703;28;20442;-82
2023/07/17 10:58:20;;;;;;;9.00;5.00;;;32.10;40.70;;;;;;4986005;28;20779;-81
2023/07/17 11:00:47;;;;;;;7.40;4.83;;;31.80;41.20;;;;;;5004676;28;20527;-78
2023/07/17 11:03:16;;;;;;;6.23;5.63;;;31.70;41.80;;;;;;5004861;28;20435;-78
2023/07/17 11:05:45;;;;;;;6.30;5.20;;;31.80;40.80;;;;;;5004996;28;20539;-78
2023/07/17 11:08:13;;;;;;;7.00;5.37;;;32.00;40.50;;;;;;4987475;28;20444;-79
2023/07/17 11:10:43;;;;;;;6.17;5.57;;;31.80;40.90;;;;;;4987306;28;20442;-79
2023/07/17 11:13:11;;;;;;;7.30;4.97;;;31.50;40.60;;;;;;5004310;28;20410;-82
2023/07/17 11:15:38;;;;;;;6.63;5.37;;;31.20;40.70;;;;;;4988193;28;20852;-79
2023/07/17 11:18:07;;;;;;;6.23;4.93;;;31.00;41.10;;;;;;5005641;28;20561;-78
2023/07/17 11:20:35;;;;;;;5.90;5.33;;;31.10;41.00;;;;;;5004776;28;20447;-80
2023/07/17 11:23:03;;;;;;;5.20;4.80;;;31.10;41.00;;;;;;5003851;28;20431;-78
2023/07/17 11:25:35;;;;;;;4.93;4.50;;;31.10;40.50;;;;;;5003215;28;20462;-81
2023/07/17 11:28:02;;;;;;;5.50;5.00;;;30.80;39.60;;;;;;5004271;28;20503;-78
2023/07/17 11:30:32;;;;;;;6.23;5.40;;;30.90;40.20;;;;;;5004536;28;20485;-78
2023/07/17 11:33:00;;;;;;;6.10;5.10;;;31.30;40.00;;;;;;5004108;28;20432;-81
2023/07/17 11:35:36;;;;;;;4.90;4.40;;;31.50;39.20;;;;;;5004346;28;20454;-79
2023/07/17 11:38:08;;;;;;;6.10;5.00;;;31.70;37.20;;;;;;5003706;28;20514;-78
2023/07/17 11:40:53;;;;;;;4.90;4.50;;;31.60;36.10;;;;;;5004092;28;20463;-80
2023/07/17 11:43:32;;;;;;;5.60;5.10;;;30.90;36.00;;;;;;5004130;28;20417;-79
2023/07/17 11:46:02;;;;;;;5.53;4.93;;;30.60;37.00;;;;;;5003898;28;20431;-78
2023/07/17 11:48:32;;;;;;;7.77;5.63;;;30.40;37.10;;;;;;5003157;28;20415;-79
2023/07/17 11:51:05;;;;;;;5.10;4.70;;;30.40;36.60;;;;;;5003578;28;20435;-77
2023/07/17 11:53:33;;;;;;;7.30;5.27;;;30.40;37.50;;;;;;5003841;28;20459;-79
2023/07/17 11:56:01;;;;;;;5.67;5.17;;;30.50;37.70;;;;;;4986976;28;20537;-78
2023/07/17 11:58:31;;;;;;;7.40;5.43;;;30.60;38.00;;;;;;5004378;28;20446;-80
2023/07/17 12:00:58;;;;;;;6.77;6.17;;;30.80;36.90;;;;;;5003813;28;20470;-78
2023/07/17 12:03:25;;;;;;;7.40;5.50;;;30.70;36.10;;;;;;5003980;28;20470;-82
2023/07/17 12:05:52;;;;;;;5.63;5.10;;;30.50;35.80;;;;;;5003896;28;20631;-77
2023/07/17 12:08:19;;;;;;;5.80;5.30;;;30.70;35.90;;;;;;5003454;28;20414;-81
2023/07/17 12:10:46;;;;;;;5.97;5.10;;;30.40;35.10;;;;;;5002834;28;20447;-78
2023/07/17 12:13:14;;;;;;;5.23;4.83;;;30.50;35.60;;;;;;5004010;28;20506;-76
2023/07/17 12:15:41;;;;;;;6.13;5.60;;;30.70;35.70;;;;;;5003514;28;20436;-77
2023/07/17 12:18:08;;;;;;;8.90;5.73;;;30.70;35.40;;;;;;5003630;28;20463;-78
2023/07/17 12:20:35;;;;;;;6.40;5.50;;;31.00;35.60;;;;;;5003543;28;20507;-79
2023/07/17 12:23:03;;;;;;;7.10;5.50;;;31.00;35.00;;;;;;5002181;28;20439;-79
2023/07/17 12:25:30;;;;;;;9.67;5.47;;;30.90;35.50;;;;;;5003572;28;20439;-84
2023/07/17 12:28:00;;;;;;;6.73;5.60;;;30.70;36.50;;;;;;5003629;28;20436;-79
2023/07/17 12:30:29;;;;;;;7.00;6.30;;;30.80;35.90;;;;;;5003474;28;20441;-81
2023/07/17 12:32:58;;;;;;;7.07;5.97;;;30.50;36.60;;;;;;5004258;28;20455;-78
2023/07/17 12:35:28;;;;;;;6.20;5.60;;;30.30;35.50;;;;;;5002515;28;20448;-79
2023/07/17 12:37:56;;;;;;;8.13;5.60;;;30.10;36.80;;;;;;5002890;28;20454;-78
2023/07/17 12:40:24;;;;;;;13.37;5.83;;;30.10;36.80;;;;;;5002865;28;20645;-78
2023/07/17 12:42:51;;;;;;;7.80;6.00;;;30.00;36.70;;;;;;5002734;28;20438;-79
2023/07/17 12:45:18;;;;;;;6.33;5.37;;;30.40;36.80;;;;;;5002345;28;20755;-77
2023/07/17 12:47:45;;;;;;;6.40;5.80;;;30.70;36.20;;;;;;5003279;28;20620;-79
2023/07/17 12:50:12;;;;;;;6.40;5.30;;;31.20;34.10;;;;;;5003006;28;20471;-79
2023/07/17 12:52:39;;;;;;;6.30;5.70;;;31.40;34.20;;;;;;5002849;28;20442;-79